Estación Meteorológica Peña el Pijo (Robertgarden) [ 11/20/18 01:25:45 CET ]

Fecha Hora Presion(HPa) Temp (°C) Humedad % Rocio (°C) Viento ( m/s) Direccion Lluvia 1Hora(mm) Lluvia 24H(mm) LLuvia Total(mm)
2018-Nov-08 01:01:38 1008.900 4.4 85 2.1         96.34
2018-Nov-08 02:10:11 1008.500 3.3 86 1.2         96.34
2018-Nov-08 03:02:11 1008.600 2.9 86 0.8         96.34
2018-Nov-08 04:07:10 1008.500 2.4 87 0.4         96.34
2018-Nov-08 05:01:49 1008.300 3.4 88 1.6         96.34
2018-Nov-08 06:01:59 1008.200 4.5 89 2.8         96.34
2018-Nov-08 07:01:52 1008.000 4.9 89 3.2         96.34
2018-Nov-08 08:01:45 1008.300 3.6 89 1.9         96.34
2018-Nov-08 09:01:50 1008.600 5.0 90 3.5         96.34
2018-Nov-08 10:01:49 1008.700 9.4 90 7.9         96.34
2018-Nov-08 11:01:46 1008.600 15.5 77 11.5         96.34
2018-Nov-08 12:01:35 1007.800 15.4 61 7.9         96.34
2018-Nov-08 13:01:51 1006.900 17.6 54 8.1 1.3 WNW     96.34
2018-Nov-08 14:01:50 1005.700 20.1 47 8.4         96.34
2018-Nov-08 15:01:42 1005.000 19.1 47 7.5         96.34
2018-Nov-08 16:01:38 1004.500 17.0 56 8.1         96.34
2018-Nov-08 17:01:42 1004.400 14.9 63 7.9         96.34
2018-Nov-08 18:01:26 1004.100 13.6 67 7.6         96.34
2018-Nov-08 19:01:51 1004.400 13.6 67 7.6         96.34
2018-Nov-08 20:01:25 1004.500 11.8 73 7.1         96.34
2018-Nov-08 21:01:46 1005.300 10.9 80 7.6     0.51 0.51 96.86
2018-Nov-08 22:01:35 1005.800 9.6 81 6.5     1.03 1.55 97.90
2018-Nov-08 23:01:38 1005.000 8.3 81 5.2       1.55 97.90

Temperatura Máxima:20°    Temperatura Mínima:
Presión Máxima:1008.900 Hpa    Presión Mínima:1004.100 Hpa


Volver